sensor_id;sensor_type;location;lat;lon;timestamp;pressure;altitude;pressure_sealevel;temperature;humidity
40490;BME280;26196;52.302;10.572;2023-02-04T00:00:28;101694.16;;;8.50;63.24
40490;BME280;26196;52.302;10.572;2023-02-04T00:04:29;101723.72;;;8.51;63.12
40490;BME280;26196;52.302;10.572;2023-02-04T00:08:30;101724.59;;;8.51;62.97
40490;BME280;26196;52.302;10.572;2023-02-04T00:12:30;101753.31;;;8.53;62.87
40490;BME280;26196;52.302;10.572;2023-02-04T00:16:30;101760.28;;;8.48;63.13
40490;BME280;26196;52.302;10.572;2023-02-04T00:20:31;101762.00;;;8.46;62.96
40490;BME280;26196;52.302;10.572;2023-02-04T00:25:05;101781.09;;;8.42;63.00
40490;BME280;26196;52.302;10.572;2023-02-04T00:29:06;101800.28;;;8.45;63.13
40490;BME280;26196;52.302;10.572;2023-02-04T00:33:06;101801.13;;;8.46;63.38
40490;BME280;26196;52.302;10.572;2023-02-04T00:37:06;101812.47;;;8.51;63.21
40490;BME280;26196;52.302;10.572;2023-02-04T00:41:07;101822.91;;;8.51;62.63
40490;BME280;26196;52.302;10.572;2023-02-04T00:45:08;101828.13;;;8.51;62.72
40490;BME280;26196;52.302;10.572;2023-02-04T00:49:09;101836.81;;;8.50;62.67
40490;BME280;26196;52.302;10.572;2023-02-04T00:53:09;101841.16;;;8.49;63.01
40490;BME280;26196;52.302;10.572;2023-02-04T00:57:10;101845.53;;;8.50;62.77
40490;BME280;26196;52.302;10.572;2023-02-04T01:01:10;101860.31;;;8.50;62.83
40490;BME280;26196;52.302;10.572;2023-02-04T01:05:10;101863.78;;;8.50;62.74
40490;BME280;26196;52.302;10.572;2023-02-04T01:09:11;101879.41;;;8.49;62.80
40490;BME280;26196;52.302;10.572;2023-02-04T01:13:11;101882.91;;;8.49;62.94
40490;BME280;26196;52.302;10.572;2023-02-04T01:17:12;101906.41;;;8.54;62.06
40490;BME280;26196;52.302;10.572;2023-02-04T01:21:13;101910.72;;;8.49;62.13
40490;BME280;26196;52.302;10.572;2023-02-04T01:25:13;101923.78;;;8.49;62.38
40490;BME280;26196;52.302;10.572;2023-02-04T01:29:47;101940.31;;;8.49;62.68
40490;BME280;26196;52.302;10.572;2023-02-04T01:33:48;101944.66;;;8.55;62.19
40490;BME280;26196;52.302;10.572;2023-02-04T01:37:48;101961.22;;;8.56;62.25
40490;BME280;26196;52.302;10.572;2023-02-04T01:41:48;101986.44;;;8.53;62.02
40490;BME280;26196;52.302;10.572;2023-02-04T01:46:23;101986.47;;;8.58;62.19
40490;BME280;26196;52.302;10.572;2023-02-04T01:50:23;102003.84;;;8.56;61.64
40490;BME280;26196;52.302;10.572;2023-02-04T01:54:25;102017.81;;;8.61;61.74
40490;BME280;26196;52.302;10.572;2023-02-04T01:58:33;102024.72;;;8.56;61.25
40490;BME280;26196;52.302;10.572;2023-02-04T02:02:41;102030.81;;;8.57;61.53
40490;BME280;26196;52.302;10.572;2023-02-04T02:06:54;102037.75;;;8.54;60.66
40490;BME280;26196;52.302;10.572;2023-02-04T02:10:56;102041.28;;;8.58;60.97
40490;BME280;26196;52.302;10.572;2023-02-04T02:14:58;102049.09;;;8.58;61.15
40490;BME280;26196;52.302;10.572;2023-02-04T02:18:58;102064.72;;;8.55;61.10
40490;BME280;26196;52.302;10.572;2023-02-04T02:27:37;102062.19;;;8.64;60.54
40490;BME280;26196;52.302;10.572;2023-02-04T02:31:37;102067.41;;;8.67;61.02
40490;BME280;26196;52.302;10.572;2023-02-04T02:35:38;102056.97;;;8.64;60.41
40490;BME280;26196;52.302;10.572;2023-02-04T02:39:39;102076.13;;;8.66;60.52
40490;BME280;26196;52.302;10.572;2023-02-04T02:43:41;102085.69;;;8.67;60.47
40490;BME280;26196;52.302;10.572;2023-02-04T02:47:41;102090.91;;;8.67;60.41
40490;BME280;26196;52.302;10.572;2023-02-04T02:51:42;102104.84;;;8.69;60.26
40490;BME280;26196;52.302;10.572;2023-02-04T02:55:43;102097.00;;;8.68;60.32
40490;BME280;26196;52.302;10.572;2023-02-04T02:59:44;102107.47;;;8.72;59.93
40490;BME280;26196;52.302;10.572;2023-02-04T03:04:19;102117.00;;;8.67;59.96
40490;BME280;26196;52.302;10.572;2023-02-04T03:08:20;102124.84;;;8.67;60.15
40490;BME280;26196;52.302;10.572;2023-02-04T03:12:21;102141.41;;;8.69;59.80
40490;BME280;26196;52.302;10.572;2023-02-04T03:16:21;102150.09;;;8.68;59.50
40490;BME280;26196;52.302;10.572;2023-02-04T03:20:24;102149.22;;;8.69;59.60
40490;BME280;26196;52.302;10.572;2023-02-04T03:24:26;102157.03;;;8.66;59.60
40490;BME280;26196;52.302;10.572;2023-02-04T03:28:26;102169.22;;;8.67;60.00
40490;BME280;26196;52.302;10.572;2023-02-04T03:32:27;102188.38;;;8.69;59.84
40490;BME280;26196;52.302;10.572;2023-02-04T03:36:27;102192.69;;;8.64;59.54
40490;BME280;26196;52.302;10.572;2023-02-04T03:40:27;102207.50;;;8.67;59.94
40490;BME280;26196;52.302;10.572;2023-02-04T03:45:03;102215.38;;;8.68;60.06
40490;BME280;26196;52.302;10.572;2023-02-04T03:49:03;102227.53;;;8.66;59.27
40490;BME280;26196;52.302;10.572;2023-02-04T03:53:04;102237.09;;;8.67;58.81
40490;BME280;26196;52.302;10.572;2023-02-04T03:57:04;102242.31;;;8.67;58.95
40490;BME280;26196;52.302;10.572;2023-02-04T04:01:04;102243.19;;;8.66;58.73
40490;BME280;26196;52.302;10.572;2023-02-04T04:05:42;102259.72;;;8.67;59.23
40490;BME280;26196;52.302;10.572;2023-02-04T04:09:42;102275.34;;;8.65;58.75
40490;BME280;26196;52.302;10.572;2023-02-04T04:13:43;102272.75;;;8.65;58.86
40490;BME280;26196;52.302;10.572;2023-02-04T04:17:43;102290.19;;;8.66;59.49
40490;BME280;26196;52.302;10.572;2023-02-04T04:21:43;102300.56;;;8.62;59.10
40490;BME280;26196;52.302;10.572;2023-02-04T04:25:44;102311.00;;;8.62;58.66
40490;BME280;26196;52.302;10.572;2023-02-04T04:29:44;102323.19;;;8.63;59.03
40490;BME280;26196;52.302;10.572;2023-02-04T04:33:44;102302.22;;;8.53;58.38
40490;BME280;26196;52.302;10.572;2023-02-04T04:37:45;102327.50;;;8.59;58.41
40490;BME280;26196;52.302;10.572;2023-02-04T04:41:45;102343.19;;;8.61;59.02
40490;BME280;26196;52.302;10.572;2023-02-04T04:45:45;102344.03;;;8.58;58.42
40490;BME280;26196;52.302;10.572;2023-02-04T04:49:46;102348.44;;;8.61;58.71
40490;BME280;26196;52.302;10.572;2023-02-04T04:53:46;102348.41;;;8.59;58.34
40490;BME280;26196;52.302;10.572;2023-02-04T04:58:20;102363.19;;;8.60;58.04
40490;BME280;26196;52.302;10.572;2023-02-04T05:02:21;102371.91;;;8.61;58.02
40490;BME280;26196;52.302;10.572;2023-02-04T05:06:21;102377.13;;;8.62;58.74
40490;BME280;26196;52.302;10.572;2023-02-04T05:10:24;102384.94;;;8.59;58.49
40490;BME280;26196;52.302;10.572;2023-02-04T05:14:24;102397.97;;;8.58;58.37
40490;BME280;26196;52.302;10.572;2023-02-04T05:18:25;102402.34;;;8.60;57.95
40490;BME280;26196;52.302;10.572;2023-02-04T05:22:59;102403.25;;;8.61;57.45
40490;BME280;26196;52.302;10.572;2023-02-04T05:27:00;102402.38;;;8.62;58.29
40490;BME280;26196;52.302;10.572;2023-02-04T05:31:01;102401.50;;;8.61;57.95
40490;BME280;26196;52.302;10.572;2023-02-04T05:35:02;102392.81;;;8.61;57.93
40490;BME280;26196;52.302;10.572;2023-02-04T05:39:02;102401.50;;;8.61;58.08
40490;BME280;26196;52.302;10.572;2023-02-04T05:43:02;102400.63;;;8.62;58.38
40490;BME280;26196;52.302;10.572;2023-02-04T05:47:04;102417.16;;;8.63;58.08
40490;BME280;26196;52.302;10.572;2023-02-04T05:51:04;102417.13;;;8.60;57.71
40490;BME280;26196;52.302;10.572;2023-02-04T05:55:39;102438.97;;;8.66;58.05
40490;BME280;26196;52.302;10.572;2023-02-04T05:59:39;102445.91;;;8.64;58.34
40490;BME280;26196;52.302;10.572;2023-02-04T06:03:39;102449.41;;;8.66;57.83
40490;BME280;26196;52.302;10.572;2023-02-04T06:08:16;102461.63;;;8.69;58.52
40490;BME280;26196;52.302;10.572;2023-02-04T06:12:17;102475.53;;;8.66;58.58
40490;BME280;26196;52.302;10.572;2023-02-04T06:16:17;102488.56;;;8.68;58.33
40490;BME280;26196;52.302;10.572;2023-02-04T06:20:18;102491.19;;;8.66;58.23
40490;BME280;26196;52.302;10.572;2023-02-04T06:24:55;102507.75;;;8.68;57.85
40490;BME280;26196;52.302;10.572;2023-02-04T06:28:55;102506.84;;;8.66;57.93
40490;BME280;26196;52.302;10.572;2023-02-04T06:33:34;102510.38;;;8.70;58.03
40490;BME280;26196;52.302;10.572;2023-02-04T06:37:34;102524.25;;;8.66;58.41
40490;BME280;26196;52.302;10.572;2023-02-04T06:42:09;102523.41;;;8.68;57.76
40490;BME280;26196;52.302;10.572;2023-02-04T06:46:46;102521.69;;;8.69;57.69
40490;BME280;26196;52.302;10.572;2023-02-04T07:14:47;102557.41;;;8.73;57.42
40490;BME280;26196;52.302;10.572;2023-02-04T07:18:47;102567.00;;;8.75;57.84
40490;BME280;26196;52.302;10.572;2023-02-04T07:22:48;102568.75;;;8.73;57.97
40490;BME280;26196;52.302;10.572;2023-02-04T07:26:48;102584.44;;;8.76;58.14
40490;BME280;26196;52.302;10.572;2023-02-04T07:31:24;102581.88;;;8.80;57.57
40490;BME280;26196;52.302;10.572;2023-02-04T07:35:24;102590.53;;;8.77;57.64
40490;BME280;26196;52.302;10.572;2023-02-04T07:39:24;102597.50;;;8.76;57.95
40490;BME280;26196;52.302;10.572;2023-02-04T07:44:02;102621.91;;;8.79;57.62
40490;BME280;26196;52.302;10.572;2023-02-04T07:48:03;102620.13;;;8.77;57.87
40490;BME280;26196;52.302;10.572;2023-02-04T07:52:03;102629.75;;;8.80;57.33
40490;BME280;26196;52.302;10.572;2023-02-04T07:56:22;102635.81;;;8.79;57.97
40490;BME280;26196;52.302;10.572;2023-02-04T08:00:22;102633.25;;;8.82;57.45
40490;BME280;26196;52.302;10.572;2023-02-04T08:04:23;102645.44;;;8.83;57.67
40490;BME280;26196;52.302;10.572;2023-02-04T08:08:23;102651.50;;;8.81;58.35
40490;BME280;26196;52.302;10.572;2023-02-04T08:12:23;102654.16;;;8.82;57.62
40490;BME280;26196;52.302;10.572;2023-02-04T08:16:24;102664.59;;;8.82;57.24
40490;BME280;26196;52.302;10.572;2023-02-04T08:20:24;102672.44;;;8.82;57.49
40490;BME280;26196;52.302;10.572;2023-02-04T08:24:24;102678.56;;;8.84;57.68
40490;BME280;26196;52.302;10.572;2023-02-04T08:28:25;102668.97;;;8.85;57.92
40490;BME280;26196;52.302;10.572;2023-02-04T08:32:25;102677.66;;;8.84;57.47
40490;BME280;26196;52.302;10.572;2023-02-04T08:36:27;102672.44;;;8.84;58.13
40490;BME280;26196;52.302;10.572;2023-02-04T08:41:01;102679.38;;;8.82;57.70
40490;BME280;26196;52.302;10.572;2023-02-04T08:45:02;102681.16;;;8.86;57.76
40490;BME280;26196;52.302;10.572;2023-02-04T08:49:03;102686.41;;;8.86;57.15
40490;BME280;26196;52.302;10.572;2023-02-04T08:53:03;102696.88;;;8.89;57.07
40490;BME280;26196;52.302;10.572;2023-02-04T08:57:38;102691.66;;;8.89;57.63
40490;BME280;26196;52.302;10.572;2023-02-04T09:01:38;102703.06;;;8.92;58.15
40490;BME280;26196;52.302;10.572;2023-02-04T09:05:38;102705.63;;;8.91;57.81
40490;BME280;26196;52.302;10.572;2023-02-04T09:10:16;102709.97;;;8.90;58.01
40490;BME280;26196;52.302;10.572;2023-02-04T09:14:16;102705.66;;;8.94;58.17
40490;BME280;26196;52.302;10.572;2023-02-04T09:18:17;102706.56;;;8.96;57.44
40490;BME280;26196;52.302;10.572;2023-02-04T09:22:51;102712.66;;;8.95;57.91
40490;BME280;26196;52.302;10.572;2023-02-04T09:27:29;102716.19;;;8.97;57.53
40490;BME280;26196;52.302;10.572;2023-02-04T09:41:20;102737.13;;;9.02;58.14
40490;BME280;26196;52.302;10.572;2023-02-04T09:45:25;102737.19;;;9.06;57.79
40490;BME280;26196;52.302;10.572;2023-02-04T09:49:58;102746.81;;;9.07;58.16
40490;BME280;26196;52.302;10.572;2023-02-04T09:58:55;102766.94;;;9.14;58.95
40490;BME280;26196;52.302;10.572;2023-02-04T10:02:59;102770.41;;;9.13;58.42
40490;BME280;26196;52.302;10.572;2023-02-04T10:07:35;102776.53;;;9.17;59.52
40490;BME280;26196;52.302;10.572;2023-02-04T10:11:37;102763.56;;;9.22;58.89
40490;BME280;26196;52.302;10.572;2023-02-04T10:15:39;102766.22;;;9.23;58.63
40490;BME280;26196;52.302;10.572;2023-02-04T10:19:39;102767.06;;;9.24;59.58
40490;BME280;26196;52.302;10.572;2023-02-04T10:24:18;102772.34;;;9.27;58.28
40490;BME280;26196;52.302;10.572;2023-02-04T10:32:58;102772.41;;;9.33;59.82
40490;BME280;26196;52.302;10.572;2023-02-04T10:36:58;102780.28;;;9.34;60.13
40490;BME280;26196;52.302;10.572;2023-02-04T10:41:34;102782.88;;;9.33;59.01
40490;BME280;26196;52.302;10.572;2023-02-04T10:50:34;102786.41;;;9.35;59.16
40490;BME280;26196;52.302;10.572;2023-02-04T10:55:13;102793.41;;;9.36;59.61
40490;BME280;26196;52.302;10.572;2023-02-04T10:59:52;102793.47;;;9.42;59.46
40490;BME280;26196;52.302;10.572;2023-02-04T11:04:27;102789.16;;;9.46;59.97
40490;BME280;26196;52.302;10.572;2023-02-04T11:09:02;102791.00;;;9.53;59.26
40490;BME280;26196;52.302;10.572;2023-02-04T11:13:38;102790.09;;;9.49;58.95
40490;BME280;26196;52.302;10.572;2023-02-04T11:22:54;102797.94;;;9.49;59.38
40490;BME280;26196;52.302;10.572;2023-02-04T11:41:28;102812.91;;;9.59;59.61
40490;BME280;26196;52.302;10.572;2023-02-04T11:45:34;102819.03;;;9.63;59.63
40490;BME280;26196;52.302;10.572;2023-02-04T11:54:42;102819.06;;;9.66;59.81
40490;BME280;26196;52.302;10.572;2023-02-04T11:59:17;102818.25;;;9.69;59.68
40490;BME280;26196;52.302;10.572;2023-02-04T12:08:08;102815.69;;;9.75;60.50
40490;BME280;26196;52.302;10.572;2023-02-04T12:12:39;102816.59;;;9.77;59.86
40490;BME280;26196;52.302;10.572;2023-02-04T12:16:48;102815.75;;;9.79;60.05
40490;BME280;26196;52.302;10.572;2023-02-04T12:21:21;102818.41;;;9.82;59.70
40490;BME280;26196;52.302;10.572;2023-02-04T12:25:58;102826.31;;;9.85;59.52
40490;BME280;26196;52.302;10.572;2023-02-04T12:35:10;102832.47;;;9.89;59.16
40490;BME280;26196;52.302;10.572;2023-02-04T12:53:34;102843.88;;;9.96;59.55
40490;BME280;26196;52.302;10.572;2023-02-04T13:07:16;102841.25;;;9.94;58.99
40490;BME280;26196;52.302;10.572;2023-02-04T13:11:16;102840.41;;;9.97;59.15
40490;BME280;26196;52.302;10.572;2023-02-04T13:15:54;102849.09;;;9.96;59.09
40490;BME280;26196;52.302;10.572;2023-02-04T13:20:31;102854.31;;;9.94;58.88
40490;BME280;26196;52.302;10.572;2023-02-04T13:34:22;102852.63;;;9.96;58.88
40490;BME280;26196;52.302;10.572;2023-02-04T13:38:22;102856.97;;;9.97;59.04
40490;BME280;26196;52.302;10.572;2023-02-04T13:42:57;102859.63;;;9.99;59.30
40490;BME280;26196;52.302;10.572;2023-02-04T13:46:57;102858.78;;;10.01;59.25
40490;BME280;26196;52.302;10.572;2023-02-04T13:50:57;102857.91;;;10.02;59.29
40490;BME280;26196;52.302;10.572;2023-02-04T13:55:32;102863.22;;;10.07;59.28
40490;BME280;26196;52.302;10.572;2023-02-04T13:59:32;102857.97;;;10.08;59.29
40490;BME280;26196;52.302;10.572;2023-02-04T14:08:47;102859.75;;;10.10;59.32
40490;BME280;26196;52.302;10.572;2023-02-04T14:13:21;102862.41;;;10.13;58.70
40490;BME280;26196;52.302;10.572;2023-02-04T14:36:22;102860.75;;;10.21;59.17
40490;BME280;26196;52.302;10.572;2023-02-04T14:40:59;102855.56;;;10.24;58.91
40490;BME280;26196;52.302;10.572;2023-02-04T14:45:00;102868.69;;;10.25;59.39
40490;BME280;26196;52.302;10.572;2023-02-04T14:49:35;102866.06;;;10.27;59.74
40490;BME280;26196;52.302;10.572;2023-02-04T14:54:11;102873.09;;;10.28;59.42
40490;BME280;26196;52.302;10.572;2023-02-04T15:03:26;102883.59;;;10.31;59.13
40490;BME280;26196;52.302;10.572;2023-02-04T15:17:15;102884.50;;;10.35;59.18
40490;BME280;26196;52.302;10.572;2023-02-04T15:21:52;102881.91;;;10.36;59.43
40490;BME280;26196;52.302;10.572;2023-02-04T15:26:27;102883.66;;;10.37;59.25
40490;BME280;26196;52.302;10.572;2023-02-04T15:31:04;102894.13;;;10.37;59.25
40490;BME280;26196;52.302;10.572;2023-02-04T15:40:01;102874.94;;;10.35;59.07
40490;BME280;26196;52.302;10.572;2023-02-04T15:44:36;102884.56;;;10.38;58.79
40490;BME280;26196;52.302;10.572;2023-02-04T15:49:14;102886.31;;;10.39;58.76
40490;BME280;26196;52.302;10.572;2023-02-04T15:53:48;102874.09;;;10.39;58.92
40490;BME280;26196;52.302;10.572;2023-02-04T16:03:03;102885.44;;;10.38;58.54
40490;BME280;26196;52.302;10.572;2023-02-04T16:07:37;102884.53;;;10.36;58.74
40490;BME280;26196;52.302;10.572;2023-02-04T16:12:14;102893.22;;;10.34;58.24
40490;BME280;26196;52.302;10.572;2023-02-04T16:16:49;102890.59;;;10.32;58.40
40490;BME280;26196;52.302;10.572;2023-02-04T16:21:26;102894.09;;;10.34;58.06
40490;BME280;26196;52.302;10.572;2023-02-04T16:30:04;102896.72;;;10.34;57.37
40490;BME280;26196;52.302;10.572;2023-02-04T16:34:04;102889.72;;;10.32;57.46
40490;BME280;26196;52.302;10.572;2023-02-04T16:38:39;102892.28;;;10.28;57.23
40490;BME280;26196;52.302;10.572;2023-02-04T16:47:16;102900.19;;;10.30;56.61
40490;BME280;26196;52.302;10.572;2023-02-04T16:56:31;102900.16;;;10.28;56.46
40490;BME280;26196;52.302;10.572;2023-02-04T17:00:34;102897.47;;;10.27;56.44
40490;BME280;26196;52.302;10.572;2023-02-04T17:05:11;102899.19;;;10.23;56.33
40490;BME280;26196;52.302;10.572;2023-02-04T17:09:45;102910.56;;;10.25;56.38
40490;BME280;26196;52.302;10.572;2023-02-04T17:14:23;102907.94;;;10.25;55.96
40490;BME280;26196;52.302;10.572;2023-02-04T17:19:00;102916.63;;;10.23;55.87
40490;BME280;26196;52.302;10.572;2023-02-04T17:23:35;102931.47;;;10.22;55.42
40490;BME280;26196;52.302;10.572;2023-02-04T17:28:09;102932.34;;;10.23;55.46
40490;BME280;26196;52.302;10.572;2023-02-04T17:42:01;102942.78;;;10.20;55.31
40490;BME280;26196;52.302;10.572;2023-02-04T17:46:35;102940.16;;;10.21;55.25
40490;BME280;26196;52.302;10.572;2023-02-04T17:50:35;102942.72;;;10.18;55.51
40490;BME280;26196;52.302;10.572;2023-02-04T17:55:18;102951.47;;;10.19;55.55
40490;BME280;26196;52.302;10.572;2023-02-04T17:59:22;102953.19;;;10.18;55.11
40490;BME280;26196;52.302;10.572;2023-02-04T18:03:25;102953.19;;;10.18;55.34
40490;BME280;26196;52.302;10.572;2023-02-04T18:07:26;102949.72;;;10.18;55.33
40490;BME280;26196;52.302;10.572;2023-02-04T18:11:29;102950.59;;;10.18;55.09
40490;BME280;26196;52.302;10.572;2023-02-04T18:25:16;102947.06;;;10.15;54.96
40490;BME280;26196;52.302;10.572;2023-02-04T18:29:53;102942.63;;;10.11;54.53
40490;BME280;26196;52.302;10.572;2023-02-04T18:38:49;102949.56;;;10.08;54.16
40490;BME280;26196;52.302;10.572;2023-02-04T18:43:25;102939.06;;;10.05;54.12
40490;BME280;26196;52.302;10.572;2023-02-04T18:48:01;102946.09;;;10.08;54.36
40490;BME280;26196;52.302;10.572;2023-02-04T18:57:21;102944.31;;;10.05;54.27
40490;BME280;26196;52.302;10.572;2023-02-04T19:01:52;102948.66;;;10.05;53.79
40490;BME280;26196;52.302;10.572;2023-02-04T19:06:31;102953.91;;;10.05;53.92
40490;BME280;26196;52.302;10.572;2023-02-04T19:11:18;102956.44;;;10.00;53.88
40490;BME280;26196;52.302;10.572;2023-02-04T19:15:43;102966.94;;;10.02;53.33
40490;BME280;26196;52.302;10.572;2023-02-04T19:20:18;102975.59;;;9.96;53.50
40490;BME280;26196;52.302;10.572;2023-02-04T19:43:19;102979.06;;;9.98;53.24
40490;BME280;26196;52.302;10.572;2023-02-04T19:47:43;102974.69;;;9.96;52.56
40490;BME280;26196;52.302;10.572;2023-02-04T19:56:39;102992.94;;;9.91;52.29
40490;BME280;26196;52.302;10.572;2023-02-04T20:01:16;102980.69;;;9.90;52.90
40490;BME280;26196;52.302;10.572;2023-02-04T20:10:24;102978.97;;;9.89;53.04
40490;BME280;26196;52.302;10.572;2023-02-04T20:14:59;102973.69;;;9.88;52.93
40490;BME280;26196;52.302;10.572;2023-02-04T20:19:35;102972.84;;;9.89;52.44
40490;BME280;26196;52.302;10.572;2023-02-04T20:24:12;102981.63;;;9.92;52.09
40490;BME280;26196;52.302;10.572;2023-02-04T20:28:36;102979.84;;;9.90;52.36
40490;BME280;26196;52.302;10.572;2023-02-04T20:32:41;102987.69;;;9.88;52.18
40490;BME280;26196;52.302;10.572;2023-02-04T20:36:42;102987.59;;;9.85;51.76
40490;BME280;26196;52.302;10.572;2023-02-04T20:41:20;102984.09;;;9.83;51.81
40490;BME280;26196;52.302;10.572;2023-02-04T20:55:18;102985.69;;;9.73;51.75
40490;BME280;26196;52.302;10.572;2023-02-04T20:59:47;102976.13;;;9.75;51.00
40490;BME280;26196;52.302;10.572;2023-02-04T21:09:03;102976.94;;;9.71;51.19
40490;BME280;26196;52.302;10.572;2023-02-04T21:13:09;102976.03;;;9.69;51.47
40490;BME280;26196;52.302;10.572;2023-02-04T21:21:47;102958.59;;;9.68;51.19
40490;BME280;26196;52.302;10.572;2023-02-04T21:25:47;102954.25;;;9.72;50.99
40490;BME280;26196;52.302;10.572;2023-02-04T21:29:47;102940.34;;;9.73;50.53
40490;BME280;26196;52.302;10.572;2023-02-04T21:39:02;102948.31;;;9.80;50.29
40490;BME280;26196;52.302;10.572;2023-02-04T21:48:00;102952.34;;;9.61;50.30
40490;BME280;26196;52.302;10.572;2023-02-04T22:01:48;102959.41;;;9.67;49.62
40490;BME280;26196;52.302;10.572;2023-02-04T22:11:03;102960.16;;;9.58;48.97
40490;BME280;26196;52.302;10.572;2023-02-04T22:15:04;102955.75;;;9.54;49.17
40490;BME280;26196;52.302;10.572;2023-02-04T22:19:41;102959.13;;;9.49;48.83
40490;BME280;26196;52.302;10.572;2023-02-04T22:24:18;102953.88;;;9.47;48.91
40490;BME280;26196;52.302;10.572;2023-02-04T22:28:52;102953.84;;;9.46;49.16
40490;BME280;26196;52.302;10.572;2023-02-04T22:51:55;102944.88;;;9.30;48.55
40490;BME280;26196;52.302;10.572;2023-02-04T22:55:56;102951.78;;;9.28;48.46
40490;BME280;26196;52.302;10.572;2023-02-04T23:00:33;102953.53;;;9.26;48.03
40490;BME280;26196;52.302;10.572;2023-02-04T23:09:47;102947.31;;;9.19;47.82
40490;BME280;26196;52.302;10.572;2023-02-04T23:23:39;102963.75;;;9.13;48.03
40490;BME280;26196;52.302;10.572;2023-02-04T23:28:14;102961.09;;;9.12;48.32
40490;BME280;26196;52.302;10.572;2023-02-04T23:32:14;102959.31;;;9.09;48.01
40490;BME280;26196;52.302;10.572;2023-02-04T23:36:14;102948.81;;;9.05;47.93
40490;BME280;26196;52.302;10.572;2023-02-04T23:40:15;102955.72;;;9.03;47.75
40490;BME280;26196;52.302;10.572;2023-02-04T23:44:49;102954.91;;;9.05;47.97
40490;BME280;26196;52.302;10.572;2023-02-04T23:49:27;102953.91;;;8.98;46.98
40490;BME280;26196;52.302;10.572;2023-02-04T23:54:04;102960.06;;;9.02;47.31
40490;BME280;26196;52.302;10.572;2023-02-04T23:58:40;102959.84;;;8.91;47.59
